アムステルダム/スキポール の空港の天気 - METARとTAF

スキポール空港(アムステルダム) ( EHAM / AMS ) - オランダ アムステルダム
飛行場実況気象(Metar)
観測時間06/24 11:55 CEST (06/24 09:55 UTC)
風向・風速南南東 6m/s
視程10km以上
天気現象
なし
気温27℃
湿度62%
気圧1017hPa
METAREHAM 240955Z 15011KT 110V180 CAVOK 27/19 Q1017 NOSIG
過去の天気等 Google飛行場航空写真 Wunderground天気予報

過去48時間のMETAR

飛行場予報(TAF)
発表時間: 6/24 06:47 CEST (6/24 04:47 UTC)
予報対象時間: 24日8時 CEST ~ 25日14時 CEST
風向・風速東南東 4m/s
視程10km以上
なし
24日11時 CEST ~ 24日14時 CEST に徐々に
風向・風速南東 6m/s
24日17時 CEST ~ 24日20時 CEST に徐々に
風向・風速不定 2m/s
25日2時 CEST ~ 25日5時 CEST に徐々に
風向・風速東南東 4m/s
TAF EHAM 240447Z 2406/2512 12007KT CAVOK
BECMG 2409/2412 13012KT
BECMG 2415/2418 VRB03KT
BECMG 2500/2503 12007KT